De Peyster, New York
Current Conditions -  °F | °C
As of 11:58 AM on Sunday 21 Dec 2014 (Local Time) from KGTB Reporting Station
Overcast Overcast  
Wind Chill: 30°   Ceiling: 2900
Heat Index: 30°   Visibility: 10mi
Dew Point: 18°   Wind: 2mph
Humidity: 63%   Direction: 220°SW
Pressure: 30.29"   Gusts: NA
Location:  44.55°N, 75.43°W
Report Text: KGTB 211658Z AUTO 22002KT 10SM SCT022 OVC029 M01/M08 A3029 RMK AO2 OVC V BKN CIG 023 RWY03 SLP268 T10131076
Loading
Personal Weather Stations






























Interactive Weather Map New forecast layout! Learn more

10-Day Weather Forecast

Advertisements
Track Severe Weather on mobile